createdAt,value
2023-12-08T00:01:14.038Z,-0.36
2023-12-08T00:03:41.081Z,-0.39
2023-12-08T00:06:11.101Z,-0.37
2023-12-08T00:08:39.206Z,-0.23
2023-12-08T00:11:06.672Z,-0.33
2023-12-08T00:13:34.085Z,-0.47
2023-12-08T00:16:01.015Z,-0.48
2023-12-08T00:18:28.353Z,-0.47
2023-12-08T00:20:55.426Z,-0.52
2023-12-08T00:23:22.493Z,-0.40
2023-12-08T00:25:49.526Z,-0.46
2023-12-08T00:28:16.426Z,-0.57
2023-12-08T00:30:43.533Z,-0.60
2023-12-08T00:33:10.604Z,-0.61
2023-12-08T00:35:37.657Z,-0.54
2023-12-08T00:38:04.579Z,-0.58
2023-12-08T00:40:31.519Z,-0.64
2023-12-08T00:42:59.294Z,-0.61
2023-12-08T00:45:26.317Z,-0.62
2023-12-08T00:47:53.934Z,-0.55
2023-12-08T00:50:21.003Z,-0.58
2023-12-08T00:52:48.331Z,-0.69
2023-12-08T00:55:15.544Z,-0.75
2023-12-08T00:57:42.453Z,-0.69
2023-12-08T01:00:09.750Z,-0.73
2023-12-08T01:02:36.976Z,-0.75
2023-12-08T01:05:04.134Z,-0.77
2023-12-08T01:07:31.065Z,-0.74
2023-12-08T01:09:58.096Z,-0.88
2023-12-08T01:12:25.021Z,-0.90
2023-12-08T01:14:52.098Z,-0.87
2023-12-08T01:17:19.051Z,-0.83
2023-12-08T01:19:46.009Z,-0.79
2023-12-08T01:22:12.926Z,-0.85
2023-12-08T01:24:39.883Z,-0.82
2023-12-08T01:27:06.879Z,-0.66
2023-12-08T01:29:33.982Z,-0.78
2023-12-08T01:32:00.910Z,-0.82
2023-12-08T01:34:27.907Z,-0.82
2023-12-08T01:36:54.954Z,-0.79
2023-12-08T01:39:22.126Z,-0.83
2023-12-08T01:41:52.537Z,-0.82
2023-12-08T01:44:19.493Z,-0.90
2023-12-08T01:46:47.424Z,-0.86
2023-12-08T01:49:16.299Z,-0.94
2023-12-08T01:51:45.022Z,-0.85
2023-12-08T01:54:13.851Z,-0.93
2023-12-08T01:56:41.568Z,-0.95
2023-12-08T01:59:09.525Z,-0.97
2023-12-08T02:01:36.514Z,-0.94
2023-12-08T02:04:04.194Z,-1.01
2023-12-08T02:06:31.387Z,-0.97
2023-12-08T02:08:59.329Z,-0.96
2023-12-08T02:11:26.544Z,-0.90
2023-12-08T02:13:54.978Z,-0.86
2023-12-08T02:16:27.381Z,-0.86
2023-12-08T02:18:54.983Z,-0.92
2023-12-08T02:21:22.147Z,-0.86
2023-12-08T02:23:49.687Z,-0.87
2023-12-08T02:26:20.877Z,-0.89
2023-12-08T02:28:48.230Z,-0.82
2023-12-08T02:31:17.085Z,-0.65
2023-12-08T02:33:47.999Z,-0.58
2023-12-08T02:36:17.567Z,-0.66
2023-12-08T02:38:45.426Z,-0.57
2023-12-08T02:41:12.436Z,-0.60
2023-12-08T02:43:39.391Z,-0.66
2023-12-08T02:46:07.788Z,-0.61
2023-12-08T02:48:35.021Z,-0.54
2023-12-08T02:51:02.385Z,-0.56
2023-12-08T02:53:29.553Z,-0.69
2023-12-08T02:55:56.535Z,-0.72
2023-12-08T02:58:23.529Z,-0.69
2023-12-08T03:00:50.488Z,-0.42
2023-12-08T03:03:17.464Z,-0.47
2023-12-08T03:05:44.476Z,-0.33
2023-12-08T03:08:11.379Z,-0.31
2023-12-08T03:10:38.315Z,-0.47
2023-12-08T03:13:05.527Z,-0.60
2023-12-08T03:15:32.440Z,-0.45
2023-12-08T03:17:59.455Z,-0.61
2023-12-08T03:20:26.366Z,-0.66
2023-12-08T03:22:53.307Z,-0.52
2023-12-08T03:25:20.160Z,-0.65
2023-12-08T03:27:47.087Z,-0.69
2023-12-08T03:30:14.753Z,-0.85
2023-12-08T03:32:42.195Z,-0.76
2023-12-08T03:35:09.309Z,-0.76
2023-12-08T03:37:36.233Z,-0.74
2023-12-08T03:40:03.315Z,-0.69
2023-12-08T03:42:36.145Z,-0.77
2023-12-08T03:45:03.280Z,-0.88
2023-12-08T03:47:30.558Z,-0.83
2023-12-08T03:49:57.712Z,-1.07
2023-12-08T03:52:24.607Z,-1.05
2023-12-08T03:54:51.553Z,-1.21
2023-12-08T03:57:18.706Z,-1.16
2023-12-08T03:59:45.638Z,-1.27
2023-12-08T04:02:13.327Z,-1.27
2023-12-08T04:04:42.294Z,-1.19
2023-12-08T04:07:09.253Z,-1.25
2023-12-08T04:09:36.158Z,-1.21
2023-12-08T04:12:03.179Z,-1.34
2023-12-08T04:14:30.152Z,-1.41
2023-12-08T04:16:57.075Z,-1.33
2023-12-08T04:19:24.968Z,-1.28
2023-12-08T04:21:52.522Z,-1.30
2023-12-08T04:24:19.484Z,-1.25
2023-12-08T04:26:46.617Z,-1.27
2023-12-08T04:29:13.650Z,-1.26
2023-12-08T04:31:40.621Z,-1.21
2023-12-08T04:34:07.663Z,-1.25
2023-12-08T04:36:34.814Z,-1.32
2023-12-08T04:39:01.744Z,-1.33
2023-12-08T04:41:28.823Z,-1.29
2023-12-08T04:43:55.939Z,-1.14
2023-12-08T04:46:22.879Z,-1.18
2023-12-08T04:48:50.184Z,-1.32
2023-12-08T04:51:17.260Z,-1.22
2023-12-08T04:53:44.198Z,-1.28
2023-12-08T04:56:11.196Z,-1.28
2023-12-08T04:58:39.375Z,-1.34
2023-12-08T05:01:06.372Z,-1.28
2023-12-08T05:03:33.353Z,-1.23
2023-12-08T05:06:00.559Z,-1.25
2023-12-08T05:08:27.577Z,-1.18
2023-12-08T05:10:54.560Z,-1.26
2023-12-08T05:13:21.773Z,-1.17
2023-12-08T05:15:48.685Z,-1.30
2023-12-08T05:18:15.992Z,-1.24
2023-12-08T05:20:43.551Z,-1.13
2023-12-08T05:23:10.634Z,-1.14
2023-12-08T05:25:37.562Z,-1.14
2023-12-08T05:28:04.917Z,-1.16
2023-12-08T05:30:31.868Z,-0.98
2023-12-08T05:32:59.007Z,-1.02
2023-12-08T05:35:26.429Z,-1.03
2023-12-08T05:37:53.380Z,-1.10
2023-12-08T05:40:20.402Z,-1.10
2023-12-08T05:42:47.378Z,-1.15
2023-12-08T05:45:14.355Z,-0.97
2023-12-08T05:47:41.522Z,-1.20
2023-12-08T05:50:08.818Z,-1.16
2023-12-08T05:52:35.772Z,-1.13
2023-12-08T05:55:02.756Z,-1.24
2023-12-08T05:57:30.394Z,-1.16
2023-12-08T05:59:57.553Z,-1.18
2023-12-08T06:02:24.551Z,-1.23
2023-12-08T06:04:51.483Z,-1.25
2023-12-08T06:09:45.451Z,-1.19
2023-12-08T06:12:12.441Z,-1.33
2023-12-08T06:14:39.382Z,-1.12
2023-12-08T06:17:07.444Z,-0.98
2023-12-08T06:19:35.456Z,-1.22
2023-12-08T06:22:02.399Z,-1.21
2023-12-08T06:24:29.974Z,-1.17
2023-12-08T06:26:56.978Z,-1.10
2023-12-08T06:29:23.989Z,-0.94
2023-12-08T06:31:50.935Z,-1.11
2023-12-08T06:34:18.428Z,-1.10
2023-12-08T06:36:46.735Z,-1.13
2023-12-08T06:39:17.482Z,-0.93
2023-12-08T06:41:45.062Z,-0.85
2023-12-08T06:44:12.183Z,-0.93
2023-12-08T06:46:39.126Z,-0.71
2023-12-08T06:49:06.772Z,-0.92
2023-12-08T06:51:37.457Z,-0.95
2023-12-08T06:54:05.786Z,-1.02
2023-12-08T06:56:33.151Z,-0.75
2023-12-08T06:59:00.094Z,-0.75
2023-12-08T07:01:28.250Z,-0.78
2023-12-08T07:03:55.327Z,-0.84
2023-12-08T07:06:23.943Z,-0.89
2023-12-08T07:08:51.047Z,-1.04
2023-12-08T07:11:18.229Z,-0.93
2023-12-08T07:13:45.140Z,-0.87
2023-12-08T07:16:12.149Z,-0.91
2023-12-08T07:18:39.403Z,-0.77
2023-12-08T07:21:06.727Z,-0.84
2023-12-08T07:23:34.774Z,-0.78
2023-12-08T07:26:02.284Z,-0.95
2023-12-08T07:28:29.608Z,-1.05
2023-12-08T07:30:56.652Z,-1.00
2023-12-08T07:33:23.857Z,-0.89
2023-12-08T07:35:51.024Z,-0.88
2023-12-08T07:38:18.301Z,-0.96
2023-12-08T07:40:46.789Z,-0.92
2023-12-08T07:43:13.846Z,-0.96
2023-12-08T07:45:40.815Z,-0.97
2023-12-08T07:48:08.057Z,-0.89
2023-12-08T07:50:35.224Z,-0.65
2023-12-08T07:53:03.282Z,-0.49
2023-12-08T07:55:30.336Z,-0.55
2023-12-08T07:58:02.696Z,-0.57
2023-12-08T08:00:29.862Z,-0.55
2023-12-08T08:02:56.895Z,-0.57
2023-12-08T08:05:25.486Z,-0.71
2023-12-08T08:07:52.440Z,-0.64
2023-12-08T08:10:19.397Z,-0.76
2023-12-08T08:12:46.317Z,-0.66
2023-12-08T08:15:13.313Z,-0.53
2023-12-08T08:17:40.478Z,-0.62
2023-12-08T08:20:07.867Z,-0.82
2023-12-08T08:22:36.055Z,-0.78
2023-12-08T08:25:03.725Z,-0.75
2023-12-08T08:27:31.963Z,-0.75
2023-12-08T08:29:59.319Z,-0.66
2023-12-08T08:32:26.430Z,-0.67
2023-12-08T08:34:56.285Z,-0.56
2023-12-08T08:37:25.016Z,-0.71
2023-12-08T08:39:52.244Z,-0.77
2023-12-08T08:42:19.351Z,-0.60
2023-12-08T08:44:46.377Z,-0.44
2023-12-08T08:47:13.571Z,-0.47
2023-12-08T08:49:40.721Z,-0.57
2023-12-08T08:52:07.817Z,-0.64
2023-12-08T08:54:34.870Z,-0.74
2023-12-08T08:57:01.816Z,-0.66
2023-12-08T08:59:29.256Z,-0.72
2023-12-08T09:01:56.226Z,-0.64
2023-12-08T09:04:23.699Z,-0.73
2023-12-08T09:06:51.640Z,-0.73
2023-12-08T09:09:18.805Z,-0.45
2023-12-08T09:11:45.907Z,-0.69
2023-12-08T09:14:12.963Z,-0.36
2023-12-08T09:16:40.516Z,-0.29
2023-12-08T09:19:08.298Z,-0.27
2023-12-08T09:21:42.405Z,-0.35
2023-12-08T09:24:16.090Z,-0.52
2023-12-08T09:26:43.094Z,-0.50
2023-12-08T09:29:10.705Z,-0.68
2023-12-08T09:31:37.635Z,-0.45
2023-12-08T09:34:04.774Z,-0.41
2023-12-08T09:36:32.438Z,-0.30
2023-12-08T09:38:59.437Z,-0.08
2023-12-08T09:41:28.394Z,-0.35
2023-12-08T09:43:58.663Z,-0.39
2023-12-08T09:46:25.722Z,-0.23
2023-12-08T10:21:14.834Z,-1.34
2023-12-08T10:23:42.940Z,-1.06
2023-12-08T10:26:10.456Z,-1.11
2023-12-08T10:28:37.532Z,-1.04
2023-12-08T10:31:06.032Z,-0.92
2023-12-08T10:33:33.279Z,-0.94
2023-12-08T10:36:01.292Z,-1.27
2023-12-08T10:38:28.231Z,-1.25
2023-12-08T10:40:55.157Z,-1.39
2023-12-08T10:43:27.080Z,-1.28
2023-12-08T10:45:54.414Z,-1.04
2023-12-08T10:48:22.358Z,-1.12
2023-12-08T10:50:50.352Z,-1.05
2023-12-08T10:53:18.918Z,-1.40
2023-12-08T10:55:53.652Z,-1.42
2023-12-08T10:58:21.651Z,-1.31
2023-12-08T11:00:50.113Z,-1.14
2023-12-08T11:03:21.474Z,-1.05
2023-12-08T11:06:04.715Z,-1.12
2023-12-08T11:08:32.558Z,-1.22
2023-12-08T11:11:00.068Z,-1.29
2023-12-08T11:13:28.658Z,-1.45
2023-12-08T11:16:06.509Z,-1.37
2023-12-08T11:18:36.837Z,-1.30
2023-12-08T11:21:05.223Z,-1.24
2023-12-08T11:23:32.668Z,-1.30
2023-12-08T11:26:05.915Z,-1.11
2023-12-08T11:28:40.898Z,-1.22
2023-12-08T11:31:11.798Z,-1.27
2023-12-08T11:33:48.996Z,-1.25
2023-12-08T11:36:19.720Z,-1.13
2023-12-08T11:38:47.587Z,-1.09
2023-12-08T11:41:15.457Z,-0.93
2023-12-08T11:43:51.694Z,-1.30
2023-12-08T11:46:18.678Z,-1.17
2023-12-08T11:48:49.381Z,-1.23
2023-12-08T11:51:17.256Z,-1.16
2023-12-08T11:53:57.239Z,-1.32
2023-12-08T11:56:43.381Z,-1.30
2023-12-08T11:59:15.367Z,-1.30
2023-12-08T12:01:42.862Z,-1.29
2023-12-08T12:04:10.578Z,-1.34
2023-12-08T12:06:37.778Z,-1.37
2023-12-08T12:09:06.293Z,-1.48
2023-12-08T12:11:36.725Z,-1.53
2023-12-08T12:14:05.946Z,-1.46
2023-12-08T12:16:33.080Z,-1.52
2023-12-08T12:19:00.190Z,-1.49
2023-12-08T12:21:28.277Z,-1.44
2023-12-08T12:23:55.419Z,-1.40
2023-12-08T12:26:22.555Z,-1.31
2023-12-08T12:28:49.629Z,-1.43
2023-12-08T12:31:19.452Z,-1.36
2023-12-08T12:33:49.905Z,-1.47
2023-12-08T12:36:17.604Z,-1.43
2023-12-08T12:38:44.649Z,-1.41
2023-12-08T12:41:21.705Z,-1.50
2023-12-08T12:43:48.929Z,-1.38
2023-12-08T12:46:15.925Z,-1.48
2023-12-08T12:48:43.088Z,-1.54
2023-12-08T12:51:10.203Z,-1.58
2023-12-08T12:53:46.760Z,-1.60
2023-12-08T12:56:13.980Z,-1.59
2023-12-08T12:58:41.125Z,-1.69
2023-12-08T13:01:14.459Z,-1.49
2023-12-08T13:03:46.754Z,-1.60
2023-12-08T13:06:14.236Z,-1.62
2023-12-08T13:08:47.352Z,-1.57
2023-12-08T13:11:14.442Z,-1.61
2023-12-08T13:13:41.425Z,-1.64
2023-12-08T13:16:08.704Z,-1.53
2023-12-08T13:18:36.540Z,-1.55
2023-12-08T13:21:03.703Z,-1.53
2023-12-08T13:23:30.764Z,-1.54
2023-12-08T13:25:57.674Z,-1.57
2023-12-08T13:28:24.681Z,-1.42
2023-12-08T13:30:51.624Z,-1.59
2023-12-08T13:33:18.812Z,-1.63
2023-12-08T13:35:46.204Z,-1.69
2023-12-08T13:38:13.442Z,-1.67
2023-12-08T13:40:41.112Z,-1.71
2023-12-08T13:43:08.055Z,-1.61
2023-12-08T13:45:35.260Z,-1.71
2023-12-08T13:48:02.474Z,-1.75
2023-12-08T13:50:29.730Z,-1.60
2023-12-08T13:52:56.715Z,-1.61
2023-12-08T13:55:23.710Z,-1.60
2023-12-08T13:57:50.687Z,-1.60
2023-12-08T14:00:18.056Z,-1.57
2023-12-08T14:02:45.481Z,-1.49
2023-12-08T14:05:12.526Z,-1.58
2023-12-08T14:07:39.804Z,-1.55
2023-12-08T14:10:07.042Z,-1.58
2023-12-08T14:12:33.944Z,-1.61
2023-12-08T14:15:00.933Z,-1.62
2023-12-08T14:17:28.379Z,-1.69
2023-12-08T14:19:55.772Z,-1.73
2023-12-08T14:22:22.785Z,-1.70
2023-12-08T14:24:50.464Z,-1.71
2023-12-08T14:27:17.513Z,-1.71
2023-12-08T14:29:44.576Z,-1.78
2023-12-08T14:32:11.617Z,-1.73
2023-12-08T14:34:38.764Z,-1.79
2023-12-08T14:37:08.278Z,-1.75
2023-12-08T14:39:35.398Z,-1.79
2023-12-08T14:42:02.409Z,-1.81
2023-12-08T14:44:30.414Z,-1.82
2023-12-08T14:46:57.418Z,-1.76
2023-12-08T14:49:24.520Z,-1.84
2023-12-08T14:51:51.531Z,-1.84
2023-12-08T14:54:22.937Z,-1.87
2023-12-08T14:56:53.801Z,-1.94
2023-12-08T14:59:21.049Z,-1.94
2023-12-08T15:01:48.223Z,-1.92
2023-12-08T15:04:15.458Z,-1.94
2023-12-08T15:06:42.684Z,-1.98
2023-12-08T15:09:09.810Z,-1.98
2023-12-08T15:11:36.858Z,-1.95
2023-12-08T15:14:03.984Z,-1.92
2023-12-08T15:16:31.359Z,-1.84
2023-12-08T15:18:58.430Z,-1.94
2023-12-08T15:21:27.893Z,-1.99
2023-12-08T15:23:58.306Z,-1.97
2023-12-08T15:26:26.092Z,-2.00
2023-12-08T15:28:53.212Z,-2.02
2023-12-08T15:31:20.271Z,-2.01
2023-12-08T15:33:47.823Z,-2.02
2023-12-08T15:36:15.272Z,-2.07
2023-12-08T15:38:43.846Z,-2.03
2023-12-08T15:41:12.053Z,-2.08
2023-12-08T15:43:40.489Z,-2.01
2023-12-08T15:46:08.421Z,-2.05
2023-12-08T15:48:36.343Z,-2.07
2023-12-08T15:51:08.381Z,-2.09
2023-12-08T15:53:35.327Z,-2.07
2023-12-08T15:56:02.335Z,-2.11
2023-12-08T15:58:29.306Z,-2.16
2023-12-08T16:00:56.296Z,-2.18
2023-12-08T16:03:23.408Z,-2.17
2023-12-08T16:05:50.568Z,-2.13
2023-12-08T16:08:17.662Z,-2.17
2023-12-08T16:10:44.582Z,-2.17
2023-12-08T16:13:11.721Z,-2.17
2023-12-08T16:15:38.848Z,-2.08
2023-12-08T16:18:06.026Z,-2.14
2023-12-08T16:20:33.387Z,-2.16
2023-12-08T16:23:01.696Z,-2.14
2023-12-08T16:25:28.644Z,-2.10
2023-12-08T16:27:55.641Z,-2.17
2023-12-08T16:30:22.628Z,-2.18
2023-12-08T16:32:50.465Z,-2.16
2023-12-08T16:35:17.546Z,-2.10
2023-12-08T16:37:44.802Z,-2.17
2023-12-08T16:40:13.474Z,-2.24
2023-12-08T16:42:40.672Z,-2.22
2023-12-08T16:45:07.957Z,-2.27
2023-12-08T16:47:35.089Z,-2.29
2023-12-08T16:50:02.228Z,-2.35
2023-12-08T16:52:29.416Z,-2.34
2023-12-08T16:54:56.709Z,-2.36
2023-12-08T16:57:23.754Z,-2.36
2023-12-08T16:59:52.681Z,-2.47
2023-12-08T17:02:19.679Z,-2.44
2023-12-08T17:04:46.798Z,-2.39
2023-12-08T17:07:14.372Z,-2.52
2023-12-08T17:09:42.203Z,-2.53
2023-12-08T17:12:09.353Z,-2.48
2023-12-08T17:14:36.333Z,-2.58
2023-12-08T17:17:04.429Z,-2.59
2023-12-08T17:19:31.521Z,-2.60
2023-12-08T17:21:58.588Z,-2.53
2023-12-08T17:24:26.127Z,-2.46
2023-12-08T17:26:55.756Z,-2.50
2023-12-08T17:29:22.899Z,-2.44
2023-12-08T17:31:50.215Z,-2.49
2023-12-08T17:34:22.161Z,-2.41
2023-12-08T17:36:50.656Z,-2.34
2023-12-08T17:39:20.621Z,-2.40
2023-12-08T17:41:48.049Z,-2.45
2023-12-08T17:44:15.284Z,-2.36
2023-12-08T17:46:42.516Z,-2.36
2023-12-08T17:49:09.668Z,-2.36
2023-12-08T17:51:37.074Z,-2.37
2023-12-08T17:54:04.146Z,-2.31
2023-12-08T17:56:31.142Z,-2.24
2023-12-08T17:58:58.122Z,-2.28
2023-12-08T18:01:25.264Z,-2.39
2023-12-08T18:03:52.575Z,-2.48
2023-12-08T18:06:22.124Z,-2.54
2023-12-08T18:08:49.324Z,-2.44
2023-12-08T18:11:26.077Z,-2.50
2023-12-08T18:13:55.237Z,-2.57
2023-12-08T18:16:29.494Z,-2.70
2023-12-08T18:18:57.543Z,-2.73
2023-12-08T18:21:31.459Z,-2.67
2023-12-08T18:23:59.118Z,-2.72
2023-12-08T18:26:29.003Z,-2.80
2023-12-08T18:29:08.289Z,-2.77
2023-12-08T18:31:37.031Z,-2.56
2023-12-08T18:34:05.977Z,-2.48
2023-12-08T18:36:36.404Z,-2.58
2023-12-08T18:39:07.893Z,-2.59
2023-12-08T18:41:35.693Z,-2.57
2023-12-08T18:44:02.748Z,-2.45
2023-12-08T18:46:29.700Z,-2.59
2023-12-08T18:48:59.129Z,-2.60
2023-12-08T18:51:27.304Z,-2.67
2023-12-08T18:53:54.329Z,-2.70
2023-12-08T18:56:21.936Z,-2.63
2023-12-08T18:58:51.454Z,-2.60
2023-12-08T19:01:18.671Z,-2.71
2023-12-08T19:03:45.803Z,-2.68
2023-12-08T19:06:12.982Z,-2.74
2023-12-08T19:08:40.275Z,-2.85
2023-12-08T19:11:07.388Z,-2.90
2023-12-08T19:13:34.469Z,-2.85
2023-12-08T19:16:01.530Z,-2.83
2023-12-08T19:18:28.738Z,-2.70
2023-12-08T19:20:55.807Z,-2.86
2023-12-08T19:23:25.962Z,-2.87
2023-12-08T19:26:53.004Z,-144.79
2023-12-08T19:30:18.651Z,-144.79
2023-12-08T19:33:44.410Z,-144.79
2023-12-08T19:37:10.048Z,-144.79
2023-12-08T19:40:35.797Z,-144.79
2023-12-08T19:44:01.397Z,-144.79
2023-12-08T19:47:30.218Z,-144.79
2023-12-08T19:50:56.602Z,-144.79
2023-12-08T19:54:22.282Z,-144.79
2023-12-08T19:57:47.974Z,-144.79
2023-12-08T20:01:13.792Z,-144.79
2023-12-08T20:04:39.280Z,-144.79
2023-12-08T20:08:05.229Z,-144.79
2023-12-08T20:11:31.615Z,-144.79
2023-12-08T20:14:57.582Z,-144.79
2023-12-08T20:18:23.353Z,-144.79
2023-12-08T20:21:49.436Z,-144.79
2023-12-08T20:25:18.643Z,-144.79
2023-12-08T20:28:44.318Z,-144.79
2023-12-08T20:32:09.795Z,-144.79
2023-12-08T20:35:35.363Z,-144.79
2023-12-08T20:39:01.032Z,-144.79
2023-12-08T20:42:28.604Z,-144.79
2023-12-08T20:45:54.748Z,-144.79
2023-12-08T20:49:21.315Z,-144.79
2023-12-08T20:52:47.007Z,-144.79
2023-12-08T20:56:18.439Z,-144.79
2023-12-08T20:59:45.238Z,-144.79
2023-12-08T21:03:11.348Z,-144.79
2023-12-08T21:06:36.970Z,-144.79
2023-12-08T21:10:02.589Z,-144.79
2023-12-08T21:12:29.515Z,-2.66
2023-12-08T21:14:56.499Z,-2.62
2023-12-08T21:17:23.599Z,-2.66
2023-12-08T21:19:50.703Z,-2.67
2023-12-08T21:22:18.219Z,-2.70
2023-12-08T21:24:45.101Z,-2.73
2023-12-08T21:27:15.498Z,-2.67
2023-12-08T21:29:42.561Z,-2.75
2023-12-08T21:32:09.567Z,-2.77
2023-12-08T21:34:36.462Z,-2.81
2023-12-08T21:37:03.650Z,-2.71
2023-12-08T21:39:30.782Z,-2.70
2023-12-08T21:41:57.851Z,-2.70
2023-12-08T21:44:25.008Z,-2.81
2023-12-08T21:46:52.683Z,-2.77
2023-12-08T21:49:20.533Z,-2.83
2023-12-08T21:51:47.884Z,-2.73
2023-12-08T21:54:14.912Z,-2.71
2023-12-08T21:56:42.572Z,-2.71
2023-12-08T21:59:09.659Z,-2.61
2023-12-08T22:01:36.627Z,-2.77
2023-12-08T22:04:03.654Z,-2.71
2023-12-08T22:06:32.010Z,-2.87
2023-12-08T22:09:00.549Z,-2.79
2023-12-08T22:11:27.580Z,-2.80
2023-12-08T22:13:54.498Z,-2.89
2023-12-08T22:16:25.386Z,-2.83
2023-12-08T22:18:53.137Z,-2.69
2023-12-08T22:21:20.454Z,-2.73
2023-12-08T22:23:47.594Z,-2.79
2023-12-08T22:26:14.734Z,-2.68
2023-12-08T22:28:41.920Z,-2.64
2023-12-08T22:31:08.993Z,-2.64
2023-12-08T22:33:37.707Z,-2.62
2023-12-08T22:36:04.946Z,-2.54
2023-12-08T22:38:31.820Z,-2.50
2023-12-08T22:40:58.767Z,-2.62
2023-12-08T22:43:25.813Z,-2.61
2023-12-08T22:45:52.755Z,-2.63
2023-12-08T22:48:19.893Z,-2.64
2023-12-08T22:50:50.374Z,-2.75
2023-12-08T22:53:19.902Z,-2.62
2023-12-08T22:55:46.861Z,-2.68
2023-12-08T22:58:14.662Z,-2.67
2023-12-08T23:00:41.681Z,-2.71
2023-12-08T23:03:08.829Z,-2.81
2023-12-08T23:05:35.843Z,-2.81
2023-12-08T23:08:03.598Z,-2.85
2023-12-08T23:10:30.484Z,-2.77
2023-12-08T23:12:57.387Z,-2.75
2023-12-08T23:15:24.426Z,-2.74
2023-12-08T23:17:51.490Z,-2.77
2023-12-08T23:20:18.535Z,-2.90
2023-12-08T23:22:45.540Z,-2.91
2023-12-08T23:25:12.570Z,-2.74
2023-12-08T23:27:39.529Z,-2.79
2023-12-08T23:30:07.048Z,-2.85
2023-12-08T23:32:34.438Z,-2.68
2023-12-08T23:35:05.041Z,-2.79
2023-12-08T23:37:32.378Z,-2.85
2023-12-08T23:39:59.571Z,-2.77
2023-12-08T23:42:26.987Z,-2.92
2023-12-08T23:44:54.215Z,-3.07
2023-12-08T23:47:21.282Z,-2.98
2023-12-08T23:49:48.461Z,-2.98
2023-12-08T23:52:15.588Z,-2.94
2023-12-08T23:54:42.754Z,-3.05
2023-12-08T23:57:09.892Z,-3.00
2023-12-08T23:59:36.844Z,-3.10
